Terminal Aerodrome Forecast
Issued by NWS

Home | Current Version | Previous Version | Text Only | Print | Product List | Glossary On
Versions: 1 2 3 4 5 6 7 8 9 10 11 12 13 14 15 16 17 18 19 20 21 22 23 24 25 26 27
000
FTUS43 KGRB 260500
TAFATW
TAF
KATW 260535Z 2606/2706 26004KT P6SM FEW015
      TEMPO 2606/2607 4SM BR
     FM260900 00000KT 5SM BR FEW020 BKN050
     FM261600 07003KT 6SM HZ SCT015 BKN035=

USA.gov is the U.S. government's official web portal to all federal, state and local government web resources and services.